sensor_id;sensor_type;location;lat;lon;timestamp;P1;durP1;ratioP1;P2;durP2;ratioP2
36855;SDS011;22788;51.434;6.786;2024-02-28T00:00:10;18.57;;;11.77;;
36855;SDS011;22788;51.434;6.786;2024-02-28T00:02:36;21.10;;;13.30;;
36855;SDS011;22788;51.434;6.786;2024-02-28T00:05:02;20.33;;;12.17;;
36855;SDS011;22788;51.434;6.786;2024-02-28T00:07:27;24.90;;;13.33;;
36855;SDS011;22788;51.434;6.786;2024-02-28T00:09:55;22.33;;;12.87;;
36855;SDS011;22788;51.434;6.786;2024-02-28T00:12:21;22.00;;;12.13;;
36855;SDS011;22788;51.434;6.786;2024-02-28T00:14:48;25.17;;;13.00;;
36855;SDS011;22788;51.434;6.786;2024-02-28T00:17:13;24.17;;;13.57;;
36855;SDS011;22788;51.434;6.786;2024-02-28T00:19:39;22.17;;;12.40;;
36855;SDS011;22788;51.434;6.786;2024-02-28T00:22:05;20.27;;;12.67;;
36855;SDS011;22788;51.434;6.786;2024-02-28T00:24:30;22.07;;;13.40;;
36855;SDS011;22788;51.434;6.786;2024-02-28T00:26:56;20.03;;;13.03;;
36855;SDS011;22788;51.434;6.786;2024-02-28T00:29:21;21.03;;;12.50;;
36855;SDS011;22788;51.434;6.786;2024-02-28T00:31:48;22.97;;;13.57;;
36855;SDS011;22788;51.434;6.786;2024-02-28T00:34:14;18.33;;;12.07;;
36855;SDS011;22788;51.434;6.786;2024-02-28T00:36:40;21.90;;;12.40;;
36855;SDS011;22788;51.434;6.786;2024-02-28T00:39:05;23.23;;;13.20;;
36855;SDS011;22788;51.434;6.786;2024-02-28T00:41:31;20.97;;;12.33;;
36855;SDS011;22788;51.434;6.786;2024-02-28T00:43:56;19.97;;;12.07;;
36855;SDS011;22788;51.434;6.786;2024-02-28T00:46:22;22.10;;;13.03;;
36855;SDS011;22788;51.434;6.786;2024-02-28T00:48:49;22.13;;;12.87;;
36855;SDS011;22788;51.434;6.786;2024-02-28T00:51:15;19.80;;;12.73;;
36855;SDS011;22788;51.434;6.786;2024-02-28T00:53:40;20.90;;;13.40;;
36855;SDS011;22788;51.434;6.786;2024-02-28T00:56:06;24.13;;;13.07;;
36855;SDS011;22788;51.434;6.786;2024-02-28T00:58:32;19.57;;;12.13;;
36855;SDS011;22788;51.434;6.786;2024-02-28T01:00:57;23.83;;;13.53;;
36855;SDS011;22788;51.434;6.786;2024-02-28T01:03:23;19.70;;;11.93;;
36855;SDS011;22788;51.434;6.786;2024-02-28T01:05:50;20.10;;;12.17;;
36855;SDS011;22788;51.434;6.786;2024-02-28T01:08:16;21.77;;;12.90;;
36855;SDS011;22788;51.434;6.786;2024-02-28T01:10:41;21.83;;;12.97;;
36855;SDS011;22788;51.434;6.786;2024-02-28T01:13:07;21.13;;;13.43;;
36855;SDS011;22788;51.434;6.786;2024-02-28T01:15:33;22.07;;;12.40;;
36855;SDS011;22788;51.434;6.786;2024-02-28T01:17:58;28.10;;;14.00;;
36855;SDS011;22788;51.434;6.786;2024-02-28T01:20:24;23.80;;;13.77;;
36855;SDS011;22788;51.434;6.786;2024-02-28T01:22:51;21.23;;;12.33;;
36855;SDS011;22788;51.434;6.786;2024-02-28T01:25:16;21.70;;;12.97;;
36855;SDS011;22788;51.434;6.786;2024-02-28T01:27:42;23.80;;;13.63;;
36855;SDS011;22788;51.434;6.786;2024-02-28T01:30:08;22.03;;;13.20;;
36855;SDS011;22788;51.434;6.786;2024-02-28T01:32:34;22.17;;;13.20;;
36855;SDS011;22788;51.434;6.786;2024-02-28T01:34:59;22.57;;;12.40;;
36855;SDS011;22788;51.434;6.786;2024-02-28T01:37:25;23.33;;;12.93;;
36855;SDS011;22788;51.434;6.786;2024-02-28T01:39:52;25.10;;;14.13;;
36855;SDS011;22788;51.434;6.786;2024-02-28T01:42:17;23.43;;;13.17;;
36855;SDS011;22788;51.434;6.786;2024-02-28T01:44:44;22.37;;;12.60;;
36855;SDS011;22788;51.434;6.786;2024-02-28T01:47:11;23.33;;;13.60;;
36855;SDS011;22788;51.434;6.786;2024-02-28T01:49:37;25.57;;;13.23;;
36855;SDS011;22788;51.434;6.786;2024-02-28T01:52:03;21.07;;;12.57;;
36855;SDS011;22788;51.434;6.786;2024-02-28T01:54:29;27.07;;;14.07;;
36855;SDS011;22788;51.434;6.786;2024-02-28T01:56:58;22.57;;;12.83;;
36855;SDS011;22788;51.434;6.786;2024-02-28T01:59:25;21.57;;;13.23;;
36855;SDS011;22788;51.434;6.786;2024-02-28T02:01:52;22.60;;;13.57;;
36855;SDS011;22788;51.434;6.786;2024-02-28T02:04:19;22.53;;;12.87;;
36855;SDS011;22788;51.434;6.786;2024-02-28T02:06:44;25.70;;;13.40;;
36855;SDS011;22788;51.434;6.786;2024-02-28T02:09:10;22.53;;;13.37;;
36855;SDS011;22788;51.434;6.786;2024-02-28T02:11:36;23.83;;;12.93;;
36855;SDS011;22788;51.434;6.786;2024-02-28T02:14:04;23.57;;;13.07;;
36855;SDS011;22788;51.434;6.786;2024-02-28T02:16:30;21.40;;;13.20;;
36855;SDS011;22788;51.434;6.786;2024-02-28T02:18:55;22.10;;;13.60;;
36855;SDS011;22788;51.434;6.786;2024-02-28T02:21:22;20.97;;;12.53;;
36855;SDS011;22788;51.434;6.786;2024-02-28T02:23:50;25.13;;;13.17;;
36855;SDS011;22788;51.434;6.786;2024-02-28T02:26:15;22.33;;;13.87;;
36855;SDS011;22788;51.434;6.786;2024-02-28T02:28:41;25.07;;;14.60;;
36855;SDS011;22788;51.434;6.786;2024-02-28T02:31:07;25.23;;;12.97;;
36855;SDS011;22788;51.434;6.786;2024-02-28T02:33:33;24.30;;;13.73;;
36855;SDS011;22788;51.434;6.786;2024-02-28T02:35:58;22.70;;;14.30;;
36855;SDS011;22788;51.434;6.786;2024-02-28T02:38:24;27.10;;;13.57;;
36855;SDS011;22788;51.434;6.786;2024-02-28T02:40:51;24.77;;;13.43;;
36855;SDS011;22788;51.434;6.786;2024-02-28T02:43:17;24.53;;;13.73;;
36855;SDS011;22788;51.434;6.786;2024-02-28T02:45:43;23.43;;;13.80;;
36855;SDS011;22788;51.434;6.786;2024-02-28T02:48:09;21.57;;;12.80;;
36855;SDS011;22788;51.434;6.786;2024-02-28T02:50:34;24.67;;;13.93;;
36855;SDS011;22788;51.434;6.786;2024-02-28T02:53:00;22.27;;;13.23;;
36855;SDS011;22788;51.434;6.786;2024-02-28T02:55:26;21.13;;;13.23;;
36855;SDS011;22788;51.434;6.786;2024-02-28T02:57:52;24.60;;;13.77;;
36855;SDS011;22788;51.434;6.786;2024-02-28T03:00:19;25.97;;;14.33;;
36855;SDS011;22788;51.434;6.786;2024-02-28T03:02:44;26.00;;;13.47;;
36855;SDS011;22788;51.434;6.786;2024-02-28T03:05:10;26.73;;;14.40;;
36855;SDS011;22788;51.434;6.786;2024-02-28T03:07:36;24.73;;;14.70;;
36855;SDS011;22788;51.434;6.786;2024-02-28T03:10:01;26.20;;;13.63;;
36855;SDS011;22788;51.434;6.786;2024-02-28T03:12:27;25.80;;;13.60;;
36855;SDS011;22788;51.434;6.786;2024-02-28T03:14:54;25.03;;;13.83;;
36855;SDS011;22788;51.434;6.786;2024-02-28T03:17:20;23.53;;;14.10;;
36855;SDS011;22788;51.434;6.786;2024-02-28T03:19:45;24.17;;;13.57;;
36855;SDS011;22788;51.434;6.786;2024-02-28T03:22:11;24.40;;;13.70;;
36855;SDS011;22788;51.434;6.786;2024-02-28T03:24:36;26.30;;;14.43;;
36855;SDS011;22788;51.434;6.786;2024-02-28T03:27:02;22.70;;;13.57;;
36855;SDS011;22788;51.434;6.786;2024-02-28T03:29:28;25.77;;;14.50;;
36855;SDS011;22788;51.434;6.786;2024-02-28T03:31:55;29.90;;;14.03;;
36855;SDS011;22788;51.434;6.786;2024-02-28T03:34:21;24.03;;;13.30;;
36855;SDS011;22788;51.434;6.786;2024-02-28T03:36:46;27.63;;;13.70;;
36855;SDS011;22788;51.434;6.786;2024-02-28T03:39:12;24.37;;;14.33;;
36855;SDS011;22788;51.434;6.786;2024-02-28T03:41:38;28.67;;;13.90;;
36855;SDS011;22788;51.434;6.786;2024-02-28T03:44:04;25.20;;;13.93;;
36855;SDS011;22788;51.434;6.786;2024-02-28T03:46:30;31.47;;;15.07;;
36855;SDS011;22788;51.434;6.786;2024-02-28T03:48:57;27.80;;;15.47;;
36855;SDS011;22788;51.434;6.786;2024-02-28T03:51:22;27.77;;;15.57;;
36855;SDS011;22788;51.434;6.786;2024-02-28T03:53:48;32.40;;;16.97;;
36855;SDS011;22788;51.434;6.786;2024-02-28T03:56:20;28.93;;;15.70;;
36855;SDS011;22788;51.434;6.786;2024-02-28T03:58:46;33.00;;;16.70;;
36855;SDS011;22788;51.434;6.786;2024-02-28T04:01:12;30.33;;;15.83;;
36855;SDS011;22788;51.434;6.786;2024-02-28T04:03:38;32.07;;;17.10;;
36855;SDS011;22788;51.434;6.786;2024-02-28T04:06:05;31.57;;;15.50;;
36855;SDS011;22788;51.434;6.786;2024-02-28T04:08:31;32.43;;;17.30;;
36855;SDS011;22788;51.434;6.786;2024-02-28T04:10:56;34.53;;;16.97;;
36855;SDS011;22788;51.434;6.786;2024-02-28T04:13:22;33.03;;;16.83;;
36855;SDS011;22788;51.434;6.786;2024-02-28T04:15:47;31.73;;;16.80;;
36855;SDS011;22788;51.434;6.786;2024-02-28T04:18:13;36.60;;;18.10;;
36855;SDS011;22788;51.434;6.786;2024-02-28T04:20:38;36.93;;;17.93;;
36855;SDS011;22788;51.434;6.786;2024-02-28T04:23:06;37.43;;;18.57;;
36855;SDS011;22788;51.434;6.786;2024-02-28T04:25:31;37.27;;;18.03;;
36855;SDS011;22788;51.434;6.786;2024-02-28T04:27:57;38.20;;;19.47;;
36855;SDS011;22788;51.434;6.786;2024-02-28T04:30:22;37.93;;;18.70;;
36855;SDS011;22788;51.434;6.786;2024-02-28T04:32:48;37.00;;;18.97;;
36855;SDS011;22788;51.434;6.786;2024-02-28T04:35:14;36.70;;;19.63;;
36855;SDS011;22788;51.434;6.786;2024-02-28T04:37:39;35.13;;;19.87;;
36855;SDS011;22788;51.434;6.786;2024-02-28T04:40:07;41.70;;;20.63;;
36855;SDS011;22788;51.434;6.786;2024-02-28T04:42:33;35.87;;;19.53;;
36855;SDS011;22788;51.434;6.786;2024-02-28T04:44:59;40.87;;;19.47;;
36855;SDS011;22788;51.434;6.786;2024-02-28T04:47:25;40.30;;;20.60;;
36855;SDS011;22788;51.434;6.786;2024-02-28T04:49:50;37.70;;;20.00;;
36855;SDS011;22788;51.434;6.786;2024-02-28T04:52:16;38.37;;;20.53;;
36855;SDS011;22788;51.434;6.786;2024-02-28T04:54:41;41.33;;;20.07;;
36855;SDS011;22788;51.434;6.786;2024-02-28T04:57:08;39.57;;;20.93;;
36855;SDS011;22788;51.434;6.786;2024-02-28T04:59:35;46.33;;;20.63;;
36855;SDS011;22788;51.434;6.786;2024-02-28T05:02:00;42.40;;;21.93;;
36855;SDS011;22788;51.434;6.786;2024-02-28T05:04:26;47.47;;;21.33;;
36855;SDS011;22788;51.434;6.786;2024-02-28T05:06:52;40.37;;;21.03;;
36855;SDS011;22788;51.434;6.786;2024-02-28T05:09:17;45.37;;;20.37;;
36855;SDS011;22788;51.434;6.786;2024-02-28T05:11:43;41.43;;;20.33;;
36855;SDS011;22788;51.434;6.786;2024-02-28T05:14:10;42.37;;;22.50;;
36855;SDS011;22788;51.434;6.786;2024-02-28T05:16:36;38.30;;;21.80;;
36855;SDS011;22788;51.434;6.786;2024-02-28T05:19:01;46.10;;;22.83;;
36855;SDS011;22788;51.434;6.786;2024-02-28T05:21:27;41.43;;;21.90;;
36855;SDS011;22788;51.434;6.786;2024-02-28T05:23:53;43.53;;;21.80;;
36855;SDS011;22788;51.434;6.786;2024-02-28T05:26:18;46.00;;;22.43;;
36855;SDS011;22788;51.434;6.786;2024-02-28T05:28:44;48.33;;;23.37;;
36855;SDS011;22788;51.434;6.786;2024-02-28T05:31:20;43.20;;;22.73;;
36855;SDS011;22788;51.434;6.786;2024-02-28T05:33:47;40.33;;;22.33;;
36855;SDS011;22788;51.434;6.786;2024-02-28T05:36:21;40.90;;;22.23;;
36855;SDS011;22788;51.434;6.786;2024-02-28T05:38:52;47.07;;;23.60;;
36855;SDS011;22788;51.434;6.786;2024-02-28T05:41:25;45.23;;;22.73;;
36855;SDS011;22788;51.434;6.786;2024-02-28T05:44:00;45.47;;;23.83;;
36855;SDS011;22788;51.434;6.786;2024-02-28T05:46:44;47.10;;;24.63;;
36855;SDS011;22788;51.434;6.786;2024-02-28T05:49:13;44.70;;;22.47;;
36855;SDS011;22788;51.434;6.786;2024-02-28T05:51:54;47.57;;;23.60;;
36855;SDS011;22788;51.434;6.786;2024-02-28T05:54:27;46.87;;;23.20;;
36855;SDS011;22788;51.434;6.786;2024-02-28T05:57:19;45.77;;;23.00;;
36855;SDS011;22788;51.434;6.786;2024-02-28T05:59:45;44.30;;;22.23;;
36855;SDS011;22788;51.434;6.786;2024-02-28T06:02:36;45.60;;;22.73;;
36855;SDS011;22788;51.434;6.786;2024-02-28T06:05:28;46.80;;;23.70;;
36855;SDS011;22788;51.434;6.786;2024-02-28T06:08:07;48.77;;;24.20;;
36855;SDS011;22788;51.434;6.786;2024-02-28T06:10:43;47.93;;;25.07;;
36855;SDS011;22788;51.434;6.786;2024-02-28T06:13:12;46.67;;;24.70;;
36855;SDS011;22788;51.434;6.786;2024-02-28T06:15:38;45.43;;;23.90;;
36855;SDS011;22788;51.434;6.786;2024-02-28T06:18:05;49.13;;;24.17;;
36855;SDS011;22788;51.434;6.786;2024-02-28T06:20:31;50.03;;;25.07;;
36855;SDS011;22788;51.434;6.786;2024-02-28T06:22:57;48.60;;;24.37;;
36855;SDS011;22788;51.434;6.786;2024-02-28T06:25:22;51.60;;;24.10;;
36855;SDS011;22788;51.434;6.786;2024-02-28T06:27:48;49.77;;;23.90;;
36855;SDS011;22788;51.434;6.786;2024-02-28T06:30:14;49.00;;;24.47;;
36855;SDS011;22788;51.434;6.786;2024-02-28T06:32:41;54.57;;;24.73;;
36855;SDS011;22788;51.434;6.786;2024-02-28T06:35:08;52.97;;;25.00;;
36855;SDS011;22788;51.434;6.786;2024-02-28T06:37:34;44.97;;;23.93;;
36855;SDS011;22788;51.434;6.786;2024-02-28T06:40:00;51.50;;;24.03;;
36855;SDS011;22788;51.434;6.786;2024-02-28T06:42:25;43.53;;;23.63;;
36855;SDS011;22788;51.434;6.786;2024-02-28T06:44:51;49.00;;;24.03;;
36855;SDS011;22788;51.434;6.786;2024-02-28T06:47:16;49.33;;;25.40;;
36855;SDS011;22788;51.434;6.786;2024-02-28T06:49:42;47.10;;;24.23;;
36855;SDS011;22788;51.434;6.786;2024-02-28T06:52:09;41.70;;;21.80;;
36855;SDS011;22788;51.434;6.786;2024-02-28T06:54:35;42.60;;;22.57;;
36855;SDS011;22788;51.434;6.786;2024-02-28T06:57:00;48.80;;;23.90;;
36855;SDS011;22788;51.434;6.786;2024-02-28T06:59:26;48.80;;;24.17;;
36855;SDS011;22788;51.434;6.786;2024-02-28T07:01:51;48.57;;;23.37;;
36855;SDS011;22788;51.434;6.786;2024-02-28T07:04:17;45.03;;;21.87;;
36855;SDS011;22788;51.434;6.786;2024-02-28T07:06:42;42.67;;;21.43;;
36855;SDS011;22788;51.434;6.786;2024-02-28T07:09:10;44.60;;;23.03;;
36855;SDS011;22788;51.434;6.786;2024-02-28T07:11:37;43.80;;;21.83;;
36855;SDS011;22788;51.434;6.786;2024-02-28T07:14:02;40.90;;;21.93;;
36855;SDS011;22788;51.434;6.786;2024-02-28T07:16:28;47.87;;;22.87;;
36855;SDS011;22788;51.434;6.786;2024-02-28T07:18:53;46.50;;;22.73;;
36855;SDS011;22788;51.434;6.786;2024-02-28T07:21:19;49.73;;;23.40;;
36855;SDS011;22788;51.434;6.786;2024-02-28T07:23:45;39.57;;;21.87;;
36855;SDS011;22788;51.434;6.786;2024-02-28T07:26:15;42.63;;;22.50;;
36855;SDS011;22788;51.434;6.786;2024-02-28T07:28:40;42.00;;;21.27;;
36855;SDS011;22788;51.434;6.786;2024-02-28T07:31:06;43.37;;;21.97;;
36855;SDS011;22788;51.434;6.786;2024-02-28T07:33:31;46.93;;;23.93;;
36855;SDS011;22788;51.434;6.786;2024-02-28T07:35:57;46.23;;;22.83;;
36855;SDS011;22788;51.434;6.786;2024-02-28T07:38:23;48.77;;;22.70;;
36855;SDS011;22788;51.434;6.786;2024-02-28T07:40:48;46.37;;;23.67;;
36855;SDS011;22788;51.434;6.786;2024-02-28T07:43:15;43.70;;;21.77;;
36855;SDS011;22788;51.434;6.786;2024-02-28T07:45:41;48.23;;;23.23;;
36855;SDS011;22788;51.434;6.786;2024-02-28T07:48:06;43.97;;;21.63;;
36855;SDS011;22788;51.434;6.786;2024-02-28T07:50:32;45.63;;;23.70;;
36855;SDS011;22788;51.434;6.786;2024-02-28T07:52:57;45.73;;;23.07;;
36855;SDS011;22788;51.434;6.786;2024-02-28T07:55:23;42.33;;;21.60;;
36855;SDS011;22788;51.434;6.786;2024-02-28T07:57:50;41.13;;;21.07;;
36855;SDS011;22788;51.434;6.786;2024-02-28T08:00:17;42.37;;;22.13;;
36855;SDS011;22788;51.434;6.786;2024-02-28T08:02:43;41.50;;;21.90;;
36855;SDS011;22788;51.434;6.786;2024-02-28T08:05:09;44.83;;;21.07;;
36855;SDS011;22788;51.434;6.786;2024-02-28T08:07:34;48.90;;;21.83;;
36855;SDS011;22788;51.434;6.786;2024-02-28T08:10:00;47.23;;;22.57;;
36855;SDS011;22788;51.434;6.786;2024-02-28T08:12:25;50.67;;;24.17;;
36855;SDS011;22788;51.434;6.786;2024-02-28T08:14:51;42.47;;;22.30;;
36855;SDS011;22788;51.434;6.786;2024-02-28T08:17:18;44.73;;;21.43;;
36855;SDS011;22788;51.434;6.786;2024-02-28T08:19:43;46.77;;;22.73;;
36855;SDS011;22788;51.434;6.786;2024-02-28T08:22:09;42.47;;;21.30;;
36855;SDS011;22788;51.434;6.786;2024-02-28T08:24:34;46.03;;;23.03;;
36855;SDS011;22788;51.434;6.786;2024-02-28T08:27:00;45.73;;;22.80;;
36855;SDS011;22788;51.434;6.786;2024-02-28T08:29:25;46.63;;;22.30;;
36855;SDS011;22788;51.434;6.786;2024-02-28T08:31:51;46.30;;;22.20;;
36855;SDS011;22788;51.434;6.786;2024-02-28T08:34:18;47.67;;;22.27;;
36855;SDS011;22788;51.434;6.786;2024-02-28T08:36:43;46.43;;;21.67;;
36855;SDS011;22788;51.434;6.786;2024-02-28T08:39:09;44.87;;;22.50;;
36855;SDS011;22788;51.434;6.786;2024-02-28T08:41:35;52.37;;;23.63;;
36855;SDS011;22788;51.434;6.786;2024-02-28T08:44:00;50.03;;;22.30;;
36855;SDS011;22788;51.434;6.786;2024-02-28T08:46:26;57.50;;;23.33;;
36855;SDS011;22788;51.434;6.786;2024-02-28T08:48:55;49.77;;;24.80;;
36855;SDS011;22788;51.434;6.786;2024-02-28T08:51:22;50.37;;;23.33;;
36855;SDS011;22788;51.434;6.786;2024-02-28T08:53:48;49.43;;;22.93;;
36855;SDS011;22788;51.434;6.786;2024-02-28T08:56:13;50.50;;;22.53;;
36855;SDS011;22788;51.434;6.786;2024-02-28T08:58:39;48.77;;;22.83;;
36855;SDS011;22788;51.434;6.786;2024-02-28T09:01:05;47.20;;;23.00;;
36855;SDS011;22788;51.434;6.786;2024-02-28T09:03:31;53.43;;;22.90;;
36855;SDS011;22788;51.434;6.786;2024-02-28T09:05:59;53.70;;;24.03;;
36855;SDS011;22788;51.434;6.786;2024-02-28T09:08:28;48.43;;;22.93;;
36855;SDS011;22788;51.434;6.786;2024-02-28T09:10:53;53.60;;;24.30;;
36855;SDS011;22788;51.434;6.786;2024-02-28T09:13:19;51.57;;;23.40;;
36855;SDS011;22788;51.434;6.786;2024-02-28T09:15:45;50.20;;;23.27;;
36855;SDS011;22788;51.434;6.786;2024-02-28T09:18:11;54.53;;;23.60;;
36855;SDS011;22788;51.434;6.786;2024-02-28T09:20:37;49.43;;;22.57;;
36855;SDS011;22788;51.434;6.786;2024-02-28T09:23:03;48.63;;;22.27;;
36855;SDS011;22788;51.434;6.786;2024-02-28T09:25:30;46.37;;;22.43;;
36855;SDS011;22788;51.434;6.786;2024-02-28T09:27:55;51.47;;;23.07;;
36855;SDS011;22788;51.434;6.786;2024-02-28T09:30:21;53.57;;;23.20;;
36855;SDS011;22788;51.434;6.786;2024-02-28T09:32:47;50.70;;;22.47;;
36855;SDS011;22788;51.434;6.786;2024-02-28T09:35:12;55.97;;;23.50;;
36855;SDS011;22788;51.434;6.786;2024-02-28T09:37:38;49.70;;;22.67;;
36855;SDS011;22788;51.434;6.786;2024-02-28T09:40:04;52.17;;;22.00;;
36855;SDS011;22788;51.434;6.786;2024-02-28T09:42:35;46.80;;;23.40;;
36855;SDS011;22788;51.434;6.786;2024-02-28T09:45:04;46.60;;;22.23;;
36855;SDS011;22788;51.434;6.786;2024-02-28T09:47:38;52.03;;;23.73;;
36855;SDS011;22788;51.434;6.786;2024-02-28T09:50:04;53.33;;;21.87;;
36855;SDS011;22788;51.434;6.786;2024-02-28T09:52:31;48.53;;;22.40;;
36855;SDS011;22788;51.434;6.786;2024-02-28T09:54:57;47.23;;;22.03;;
36855;SDS011;22788;51.434;6.786;2024-02-28T09:57:23;49.93;;;22.47;;
36855;SDS011;22788;51.434;6.786;2024-02-28T09:59:51;44.17;;;21.23;;
36855;SDS011;22788;51.434;6.786;2024-02-28T10:02:17;49.27;;;22.63;;
36855;SDS011;22788;51.434;6.786;2024-02-28T10:04:46;43.83;;;21.77;;
36855;SDS011;22788;51.434;6.786;2024-02-28T10:07:15;45.00;;;21.03;;
36855;SDS011;22788;51.434;6.786;2024-02-28T10:09:42;46.43;;;22.10;;
36855;SDS011;22788;51.434;6.786;2024-02-28T10:12:08;49.73;;;23.00;;
36855;SDS011;22788;51.434;6.786;2024-02-28T10:14:34;50.37;;;22.37;;
36855;SDS011;22788;51.434;6.786;2024-02-28T10:17:02;50.40;;;21.50;;
36855;SDS011;22788;51.434;6.786;2024-02-28T10:19:33;45.23;;;21.00;;
36855;SDS011;22788;51.434;6.786;2024-02-28T10:22:14;44.87;;;22.67;;
36855;SDS011;22788;51.434;6.786;2024-02-28T10:24:41;47.60;;;22.33;;
36855;SDS011;22788;51.434;6.786;2024-02-28T10:27:08;48.60;;;22.80;;
36855;SDS011;22788;51.434;6.786;2024-02-28T10:29:34;42.93;;;20.70;;
36855;SDS011;22788;51.434;6.786;2024-02-28T10:32:02;40.77;;;20.83;;
36855;SDS011;22788;51.434;6.786;2024-02-28T10:34:29;37.73;;;19.17;;
36855;SDS011;22788;51.434;6.786;2024-02-28T10:36:55;49.87;;;22.80;;
36855;SDS011;22788;51.434;6.786;2024-02-28T10:39:26;48.73;;;20.63;;
36855;SDS011;22788;51.434;6.786;2024-02-28T10:41:53;47.10;;;22.53;;
36855;SDS011;22788;51.434;6.786;2024-02-28T10:44:20;45.83;;;22.00;;
36855;SDS011;22788;51.434;6.786;2024-02-28T10:46:50;46.53;;;21.90;;
36855;SDS011;22788;51.434;6.786;2024-02-28T10:49:20;39.53;;;20.07;;
36855;SDS011;22788;51.434;6.786;2024-02-28T10:51:46;44.70;;;21.07;;
36855;SDS011;22788;51.434;6.786;2024-02-28T10:54:14;45.37;;;21.53;;
36855;SDS011;22788;51.434;6.786;2024-02-28T10:56:40;43.53;;;21.00;;
36855;SDS011;22788;51.434;6.786;2024-02-28T10:59:10;43.83;;;20.87;;
36855;SDS011;22788;51.434;6.786;2024-02-28T11:01:36;54.50;;;22.03;;
36855;SDS011;22788;51.434;6.786;2024-02-28T11:04:03;50.63;;;20.17;;
36855;SDS011;22788;51.434;6.786;2024-02-28T11:06:31;45.40;;;21.53;;
36855;SDS011;22788;51.434;6.786;2024-02-28T11:08:58;44.67;;;21.77;;
36855;SDS011;22788;51.434;6.786;2024-02-28T11:11:29;41.30;;;18.67;;
36855;SDS011;22788;51.434;6.786;2024-02-28T11:13:57;45.07;;;19.83;;
36855;SDS011;22788;51.434;6.786;2024-02-28T11:16:26;49.97;;;23.67;;
36855;SDS011;22788;51.434;6.786;2024-02-28T11:18:52;50.10;;;21.80;;
36855;SDS011;22788;51.434;6.786;2024-02-28T11:21:18;49.60;;;20.57;;
36855;SDS011;22788;51.434;6.786;2024-02-28T11:23:47;41.57;;;20.87;;
36855;SDS011;22788;51.434;6.786;2024-02-28T11:26:13;47.03;;;22.03;;
36855;SDS011;22788;51.434;6.786;2024-02-28T11:28:46;43.63;;;20.00;;
36855;SDS011;22788;51.434;6.786;2024-02-28T11:31:15;43.87;;;20.67;;
36855;SDS011;22788;51.434;6.786;2024-02-28T11:33:41;43.90;;;19.83;;
36855;SDS011;22788;51.434;6.786;2024-02-28T11:36:11;40.07;;;20.33;;
36855;SDS011;22788;51.434;6.786;2024-02-28T11:38:38;42.00;;;19.70;;
36855;SDS011;22788;51.434;6.786;2024-02-28T11:41:07;37.70;;;19.53;;
36855;SDS011;22788;51.434;6.786;2024-02-28T11:43:33;34.60;;;18.30;;
36855;SDS011;22788;51.434;6.786;2024-02-28T11:46:07;45.03;;;19.77;;
36855;SDS011;22788;51.434;6.786;2024-02-28T11:48:36;43.97;;;20.93;;
36855;SDS011;22788;51.434;6.786;2024-02-28T11:51:11;39.33;;;18.53;;
36855;SDS011;22788;51.434;6.786;2024-02-28T11:53:45;38.53;;;19.83;;
36855;SDS011;22788;51.434;6.786;2024-02-28T11:56:12;45.33;;;20.67;;
36855;SDS011;22788;51.434;6.786;2024-02-28T11:58:51;43.33;;;19.93;;
36855;SDS011;22788;51.434;6.786;2024-02-28T12:01:16;43.50;;;19.53;;
36855;SDS011;22788;51.434;6.786;2024-02-28T12:03:45;41.63;;;18.03;;
36855;SDS011;22788;51.434;6.786;2024-02-28T12:06:15;42.03;;;18.13;;
36855;SDS011;22788;51.434;6.786;2024-02-28T12:08:59;33.03;;;18.30;;
36855;SDS011;22788;51.434;6.786;2024-02-28T12:11:26;36.77;;;18.13;;
36855;SDS011;22788;51.434;6.786;2024-02-28T12:13:54;43.00;;;20.30;;
36855;SDS011;22788;51.434;6.786;2024-02-28T12:16:21;39.13;;;20.13;;
36855;SDS011;22788;51.434;6.786;2024-02-28T12:18:47;35.87;;;17.23;;
36855;SDS011;22788;51.434;6.786;2024-02-28T12:21:13;36.27;;;18.67;;
36855;SDS011;22788;51.434;6.786;2024-02-28T12:23:39;32.53;;;16.80;;
36855;SDS011;22788;51.434;6.786;2024-02-28T12:26:04;36.17;;;17.97;;
36855;SDS011;22788;51.434;6.786;2024-02-28T12:28:31;40.57;;;19.70;;
36855;SDS011;22788;51.434;6.786;2024-02-28T12:30:57;38.00;;;18.93;;
36855;SDS011;22788;51.434;6.786;2024-02-28T12:33:22;34.87;;;18.13;;
36855;SDS011;22788;51.434;6.786;2024-02-28T12:35:48;32.80;;;17.53;;
36855;SDS011;22788;51.434;6.786;2024-02-28T12:38:13;40.80;;;19.77;;
36855;SDS011;22788;51.434;6.786;2024-02-28T12:40:39;36.47;;;17.83;;
36855;SDS011;22788;51.434;6.786;2024-02-28T12:43:04;34.13;;;17.33;;
36855;SDS011;22788;51.434;6.786;2024-02-28T12:45:34;33.33;;;16.97;;
36855;SDS011;22788;51.434;6.786;2024-02-28T12:48:00;42.00;;;18.30;;
36855;SDS011;22788;51.434;6.786;2024-02-28T12:50:25;35.93;;;17.13;;
36855;SDS011;22788;51.434;6.786;2024-02-28T12:52:51;33.87;;;16.80;;
36855;SDS011;22788;51.434;6.786;2024-02-28T12:55:16;35.37;;;18.07;;
36855;SDS011;22788;51.434;6.786;2024-02-28T12:57:42;33.13;;;15.93;;
36855;SDS011;22788;51.434;6.786;2024-02-28T13:00:08;35.20;;;16.60;;
36855;SDS011;22788;51.434;6.786;2024-02-28T13:02:35;30.93;;;15.47;;
36855;SDS011;22788;51.434;6.786;2024-02-28T13:05:00;36.40;;;18.53;;
36855;SDS011;22788;51.434;6.786;2024-02-28T13:07:26;31.97;;;16.37;;
36855;SDS011;22788;51.434;6.786;2024-02-28T13:09:52;30.33;;;16.63;;
36855;SDS011;22788;51.434;6.786;2024-02-28T13:12:17;33.87;;;17.27;;
36855;SDS011;22788;51.434;6.786;2024-02-28T13:14:43;26.80;;;14.97;;
36855;SDS011;22788;51.434;6.786;2024-02-28T13:17:08;37.27;;;17.20;;
36855;SDS011;22788;51.434;6.786;2024-02-28T13:19:35;31.67;;;16.53;;
36855;SDS011;22788;51.434;6.786;2024-02-28T13:22:10;30.93;;;15.47;;
36855;SDS011;22788;51.434;6.786;2024-02-28T13:24:35;33.83;;;17.03;;
36855;SDS011;22788;51.434;6.786;2024-02-28T13:27:04;28.93;;;15.57;;
36855;SDS011;22788;51.434;6.786;2024-02-28T13:29:30;29.40;;;15.57;;
36855;SDS011;22788;51.434;6.786;2024-02-28T13:31:58;31.67;;;16.37;;
36855;SDS011;22788;51.434;6.786;2024-02-28T13:34:24;24.30;;;14.20;;
36855;SDS011;22788;51.434;6.786;2024-02-28T13:36:51;25.90;;;14.37;;
36855;SDS011;22788;51.434;6.786;2024-02-28T13:39:17;32.10;;;17.07;;
36855;SDS011;22788;51.434;6.786;2024-02-28T13:41:42;31.43;;;15.93;;
36855;SDS011;22788;51.434;6.786;2024-02-28T13:44:08;31.23;;;16.47;;
36855;SDS011;22788;51.434;6.786;2024-02-28T13:46:33;30.27;;;16.10;;
36855;SDS011;22788;51.434;6.786;2024-02-28T13:48:59;25.00;;;14.80;;
36855;SDS011;22788;51.434;6.786;2024-02-28T13:51:24;25.27;;;14.33;;
36855;SDS011;22788;51.434;6.786;2024-02-28T13:53:51;28.30;;;14.77;;
36855;SDS011;22788;51.434;6.786;2024-02-28T13:56:17;26.53;;;12.60;;
36855;SDS011;22788;51.434;6.786;2024-02-28T13:58:42;24.93;;;14.20;;
36855;SDS011;22788;51.434;6.786;2024-02-28T14:01:08;26.67;;;13.67;;
36855;SDS011;22788;51.434;6.786;2024-02-28T14:03:34;30.93;;;15.33;;
36855;SDS011;22788;51.434;6.786;2024-02-28T14:06:00;30.80;;;15.10;;
36855;SDS011;22788;51.434;6.786;2024-02-28T14:08:25;25.93;;;14.60;;
36855;SDS011;22788;51.434;6.786;2024-02-28T14:10:52;25.60;;;13.50;;
36855;SDS011;22788;51.434;6.786;2024-02-28T14:13:18;26.63;;;14.50;;
36855;SDS011;22788;51.434;6.786;2024-02-28T14:15:43;25.77;;;13.07;;
36855;SDS011;22788;51.434;6.786;2024-02-28T14:18:09;24.23;;;13.80;;